sensor_id;sensor_type;location;lat;lon;timestamp;P1;durP1;ratioP1;P2;durP2;ratioP2
49540;SDS011;35432;43.566;1.398;2023-04-01T00:00:46;35.07;;;3.07;;
49540;SDS011;35432;43.566;1.398;2023-04-01T00:03:11;24.70;;;3.05;;
49540;SDS011;35432;43.566;1.398;2023-04-01T00:05:37;24.03;;;2.50;;
49540;SDS011;35432;43.566;1.398;2023-04-01T00:08:02;26.63;;;2.60;;
49540;SDS011;35432;43.566;1.398;2023-04-01T00:10:28;24.42;;;3.17;;
49540;SDS011;35432;43.566;1.398;2023-04-01T00:12:53;24.67;;;2.90;;
49540;SDS011;35432;43.566;1.398;2023-04-01T00:15:18;19.73;;;2.50;;
49540;SDS011;35432;43.566;1.398;2023-04-01T00:17:44;24.97;;;2.57;;
49540;SDS011;35432;43.566;1.398;2023-04-01T00:20:10;23.98;;;3.47;;
49540;SDS011;35432;43.566;1.398;2023-04-01T00:22:35;22.03;;;3.00;;
49540;SDS011;35432;43.566;1.398;2023-04-01T00:25:01;21.38;;;2.70;;
49540;SDS011;35432;43.566;1.398;2023-04-01T00:27:27;32.50;;;3.35;;
49540;SDS011;35432;43.566;1.398;2023-04-01T00:29:53;23.93;;;3.23;;
49540;SDS011;35432;43.566;1.398;2023-04-01T00:32:18;20.13;;;2.73;;
49540;SDS011;35432;43.566;1.398;2023-04-01T00:34:43;28.90;;;2.83;;
49540;SDS011;35432;43.566;1.398;2023-04-01T00:37:09;29.70;;;3.03;;
49540;SDS011;35432;43.566;1.398;2023-04-01T00:39:35;24.83;;;3.30;;
49540;SDS011;35432;43.566;1.398;2023-04-01T00:42:01;21.63;;;2.83;;
49540;SDS011;35432;43.566;1.398;2023-04-01T00:44:32;26.98;;;2.70;;
49540;SDS011;35432;43.566;1.398;2023-04-01T00:46:59;28.70;;;2.75;;
49540;SDS011;35432;43.566;1.398;2023-04-01T00:49:27;17.70;;;2.10;;
49540;SDS011;35432;43.566;1.398;2023-04-01T00:52:00;29.23;;;3.55;;
49540;SDS011;35432;43.566;1.398;2023-04-01T00:54:28;28.45;;;3.00;;
49540;SDS011;35432;43.566;1.398;2023-04-01T00:56:59;27.60;;;2.72;;
49540;SDS011;35432;43.566;1.398;2023-04-01T00:59:29;30.65;;;2.90;;
49540;SDS011;35432;43.566;1.398;2023-04-01T01:01:59;38.77;;;6.20;;
49540;SDS011;35432;43.566;1.398;2023-04-01T01:04:30;36.05;;;4.88;;
49540;SDS011;35432;43.566;1.398;2023-04-01T01:07:08;30.55;;;3.88;;
49540;SDS011;35432;43.566;1.398;2023-04-01T01:10:14;25.50;;;3.33;;
49540;SDS011;35432;43.566;1.398;2023-04-01T01:12:49;25.33;;;2.78;;
49540;SDS011;35432;43.566;1.398;2023-04-01T01:15:23;25.30;;;2.90;;
49540;SDS011;35432;43.566;1.398;2023-04-01T01:17:55;25.35;;;3.80;;
49540;SDS011;35432;43.566;1.398;2023-04-01T01:22:52;17.95;;;2.35;;
49540;SDS011;35432;43.566;1.398;2023-04-01T01:36:14;26.75;;;4.30;;
49540;SDS011;35432;43.566;1.398;2023-04-01T01:38:41;25.00;;;2.60;;
49540;SDS011;35432;43.566;1.398;2023-04-01T01:41:07;31.97;;;3.03;;
49540;SDS011;35432;43.566;1.398;2023-04-01T01:43:39;29.70;;;3.63;;
49540;SDS011;35432;43.566;1.398;2023-04-01T01:46:09;23.63;;;2.95;;
49540;SDS011;35432;43.566;1.398;2023-04-01T01:48:38;31.02;;;2.75;;
49540;SDS011;35432;43.566;1.398;2023-04-01T01:51:06;21.48;;;2.85;;
49540;SDS011;35432;43.566;1.398;2023-04-01T01:53:32;25.20;;;3.00;;
49540;SDS011;35432;43.566;1.398;2023-04-01T01:55:57;30.50;;;3.83;;
49540;SDS011;35432;43.566;1.398;2023-04-01T01:58:24;26.10;;;2.50;;
49540;SDS011;35432;43.566;1.398;2023-04-01T02:01:06;25.45;;;2.83;;
49540;SDS011;35432;43.566;1.398;2023-04-01T02:03:36;29.10;;;3.00;;
49540;SDS011;35432;43.566;1.398;2023-04-01T02:06:05;30.33;;;3.38;;
49540;SDS011;35432;43.566;1.398;2023-04-01T02:08:35;30.88;;;2.90;;
49540;SDS011;35432;43.566;1.398;2023-04-01T02:11:11;25.58;;;3.00;;
49540;SDS011;35432;43.566;1.398;2023-04-01T02:13:43;31.85;;;3.63;;
49540;SDS011;35432;43.566;1.398;2023-04-01T02:16:13;30.20;;;3.53;;
49540;SDS011;35432;43.566;1.398;2023-04-01T02:18:45;27.48;;;3.03;;
49540;SDS011;35432;43.566;1.398;2023-04-01T02:21:15;26.70;;;2.55;;
49540;SDS011;35432;43.566;1.398;2023-04-01T02:23:43;32.05;;;3.67;;
49540;SDS011;35432;43.566;1.398;2023-04-01T02:26:10;26.77;;;2.75;;
49540;SDS011;35432;43.566;1.398;2023-04-01T02:28:37;30.03;;;2.70;;
49540;SDS011;35432;43.566;1.398;2023-04-01T02:31:05;25.65;;;3.58;;
49540;SDS011;35432;43.566;1.398;2023-04-01T02:33:33;25.30;;;2.63;;
49540;SDS011;35432;43.566;1.398;2023-04-01T02:35:58;31.00;;;3.30;;
49540;SDS011;35432;43.566;1.398;2023-04-01T02:38:24;28.97;;;2.77;;
49540;SDS011;35432;43.566;1.398;2023-04-01T02:40:52;26.23;;;3.35;;
49540;SDS011;35432;43.566;1.398;2023-04-01T02:43:25;28.88;;;3.97;;
49540;SDS011;35432;43.566;1.398;2023-04-01T02:45:51;29.73;;;2.83;;
49540;SDS011;35432;43.566;1.398;2023-04-01T02:48:17;30.25;;;2.72;;
49540;SDS011;35432;43.566;1.398;2023-04-01T02:50:42;28.97;;;3.37;;
49540;SDS011;35432;43.566;1.398;2023-04-01T02:53:08;31.33;;;3.47;;
49540;SDS011;35432;43.566;1.398;2023-04-01T02:55:33;27.10;;;3.10;;
49540;SDS011;35432;43.566;1.398;2023-04-01T02:57:59;27.50;;;3.03;;
49540;SDS011;35432;43.566;1.398;2023-04-01T03:00:25;26.37;;;2.90;;
49540;SDS011;35432;43.566;1.398;2023-04-01T03:02:51;32.15;;;2.60;;
49540;SDS011;35432;43.566;1.398;2023-04-01T03:05:16;31.60;;;3.07;;
49540;SDS011;35432;43.566;1.398;2023-04-01T03:07:42;27.97;;;3.80;;
49540;SDS011;35432;43.566;1.398;2023-04-01T03:10:08;25.40;;;2.33;;
49540;SDS011;35432;43.566;1.398;2023-04-01T03:12:34;29.05;;;2.95;;
49540;SDS011;35432;43.566;1.398;2023-04-01T03:15:00;35.20;;;3.40;;
49540;SDS011;35432;43.566;1.398;2023-04-01T03:17:25;27.13;;;3.10;;
49540;SDS011;35432;43.566;1.398;2023-04-01T03:19:50;27.45;;;3.47;;
49540;SDS011;35432;43.566;1.398;2023-04-01T03:22:16;32.00;;;3.20;;
49540;SDS011;35432;43.566;1.398;2023-04-01T03:24:41;25.83;;;2.80;;
49540;SDS011;35432;43.566;1.398;2023-04-01T03:27:07;29.27;;;3.33;;
49540;SDS011;35432;43.566;1.398;2023-04-01T03:29:32;34.33;;;3.10;;
49540;SDS011;35432;43.566;1.398;2023-04-01T03:31:57;23.20;;;3.03;;
49540;SDS011;35432;43.566;1.398;2023-04-01T03:34:24;23.80;;;3.07;;
49540;SDS011;35432;43.566;1.398;2023-04-01T03:36:51;33.90;;;3.43;;
49540;SDS011;35432;43.566;1.398;2023-04-01T03:39:16;28.42;;;3.10;;
49540;SDS011;35432;43.566;1.398;2023-04-01T03:41:43;33.20;;;3.22;;
49540;SDS011;35432;43.566;1.398;2023-04-01T03:44:10;24.05;;;3.15;;
49540;SDS011;35432;43.566;1.398;2023-04-01T03:46:35;33.53;;;3.33;;
49540;SDS011;35432;43.566;1.398;2023-04-01T03:49:01;33.47;;;2.67;;
49540;SDS011;35432;43.566;1.398;2023-04-01T03:51:26;29.35;;;3.05;;
49540;SDS011;35432;43.566;1.398;2023-04-01T03:53:52;23.97;;;3.10;;
49540;SDS011;35432;43.566;1.398;2023-04-01T03:56:17;22.50;;;2.85;;
49540;SDS011;35432;43.566;1.398;2023-04-01T03:58:43;26.43;;;2.57;;
49540;SDS011;35432;43.566;1.398;2023-04-01T04:01:15;26.50;;;3.03;;
49540;SDS011;35432;43.566;1.398;2023-04-01T04:03:46;32.15;;;3.10;;
49540;SDS011;35432;43.566;1.398;2023-04-01T04:06:14;29.17;;;2.83;;
49540;SDS011;35432;43.566;1.398;2023-04-01T04:08:41;27.83;;;3.40;;
49540;SDS011;35432;43.566;1.398;2023-04-01T04:11:06;27.13;;;3.00;;
49540;SDS011;35432;43.566;1.398;2023-04-01T04:13:32;22.50;;;3.03;;
49540;SDS011;35432;43.566;1.398;2023-04-01T04:15:57;26.97;;;3.40;;
49540;SDS011;35432;43.566;1.398;2023-04-01T04:18:23;29.17;;;3.28;;
49540;SDS011;35432;43.566;1.398;2023-04-01T04:20:49;24.67;;;3.10;;
49540;SDS011;35432;43.566;1.398;2023-04-01T04:23:16;29.27;;;3.63;;
49540;SDS011;35432;43.566;1.398;2023-04-01T04:25:52;21.52;;;2.40;;
49540;SDS011;35432;43.566;1.398;2023-04-01T04:28:22;26.42;;;2.28;;
49540;SDS011;35432;43.566;1.398;2023-04-01T04:30:49;32.53;;;3.65;;
49540;SDS011;35432;43.566;1.398;2023-04-01T04:33:15;28.70;;;3.57;;
49540;SDS011;35432;43.566;1.398;2023-04-01T04:35:40;26.90;;;2.80;;
49540;SDS011;35432;43.566;1.398;2023-04-01T04:38:05;26.97;;;2.73;;
49540;SDS011;35432;43.566;1.398;2023-04-01T04:40:31;26.57;;;2.73;;
49540;SDS011;35432;43.566;1.398;2023-04-01T04:42:56;30.10;;;3.15;;
49540;SDS011;35432;43.566;1.398;2023-04-01T04:45:22;30.17;;;3.43;;
49540;SDS011;35432;43.566;1.398;2023-04-01T04:47:47;27.70;;;3.23;;
49540;SDS011;35432;43.566;1.398;2023-04-01T04:50:12;29.63;;;3.30;;
49540;SDS011;35432;43.566;1.398;2023-04-01T04:52:38;31.40;;;3.20;;
49540;SDS011;35432;43.566;1.398;2023-04-01T04:55:03;28.05;;;3.70;;
49540;SDS011;35432;43.566;1.398;2023-04-01T04:57:29;24.30;;;2.63;;
49540;SDS011;35432;43.566;1.398;2023-04-01T04:59:55;30.90;;;2.97;;
49540;SDS011;35432;43.566;1.398;2023-04-01T05:02:20;32.67;;;3.10;;
49540;SDS011;35432;43.566;1.398;2023-04-01T05:04:45;25.57;;;3.07;;
49540;SDS011;35432;43.566;1.398;2023-04-01T05:07:11;30.53;;;3.63;;
49540;SDS011;35432;43.566;1.398;2023-04-01T05:09:36;25.92;;;2.75;;
49540;SDS011;35432;43.566;1.398;2023-04-01T05:12:02;29.13;;;3.00;;
49540;SDS011;35432;43.566;1.398;2023-04-01T05:14:27;30.93;;;3.83;;
49540;SDS011;35432;43.566;1.398;2023-04-01T05:16:53;32.35;;;3.47;;
49540;SDS011;35432;43.566;1.398;2023-04-01T05:19:19;32.57;;;2.93;;
49540;SDS011;35432;43.566;1.398;2023-04-01T05:21:44;23.30;;;3.30;;
49540;SDS011;35432;43.566;1.398;2023-04-01T05:24:10;33.73;;;3.10;;
49540;SDS011;35432;43.566;1.398;2023-04-01T05:26:35;30.77;;;3.40;;
49540;SDS011;35432;43.566;1.398;2023-04-01T05:29:02;21.52;;;2.83;;
49540;SDS011;35432;43.566;1.398;2023-04-01T05:31:28;28.60;;;3.17;;
49540;SDS011;35432;43.566;1.398;2023-04-01T05:33:54;17.25;;;2.38;;
49540;SDS011;35432;43.566;1.398;2023-04-01T05:36:20;26.83;;;2.87;;
49540;SDS011;35432;43.566;1.398;2023-04-01T05:38:45;33.83;;;2.73;;
49540;SDS011;35432;43.566;1.398;2023-04-01T05:41:11;31.25;;;3.45;;
49540;SDS011;35432;43.566;1.398;2023-04-01T05:43:37;28.73;;;2.83;;
49540;SDS011;35432;43.566;1.398;2023-04-01T05:46:04;25.90;;;3.13;;
49540;SDS011;35432;43.566;1.398;2023-04-01T05:48:29;22.47;;;2.80;;
49540;SDS011;35432;43.566;1.398;2023-04-01T05:50:55;23.42;;;3.00;;
49540;SDS011;35432;43.566;1.398;2023-04-01T05:53:20;27.37;;;2.83;;
49540;SDS011;35432;43.566;1.398;2023-04-01T05:55:46;25.03;;;2.53;;
49540;SDS011;35432;43.566;1.398;2023-04-01T05:58:11;27.30;;;2.63;;
49540;SDS011;35432;43.566;1.398;2023-04-01T06:00:36;25.57;;;3.30;;
49540;SDS011;35432;43.566;1.398;2023-04-01T06:03:02;25.70;;;2.45;;
49540;SDS011;35432;43.566;1.398;2023-04-01T06:05:28;21.70;;;2.67;;
49540;SDS011;35432;43.566;1.398;2023-04-01T06:07:57;26.20;;;2.70;;
49540;SDS011;35432;43.566;1.398;2023-04-01T06:10:36;30.17;;;3.80;;
49540;SDS011;35432;43.566;1.398;2023-04-01T06:15:34;27.67;;;3.05;;
49540;SDS011;35432;43.566;1.398;2023-04-01T06:39:25;33.92;;;2.70;;
49540;SDS011;35432;43.566;1.398;2023-04-01T06:53:04;29.33;;;3.55;;
49540;SDS011;35432;43.566;1.398;2023-04-01T06:58:39;26.80;;;3.20;;
49540;SDS011;35432;43.566;1.398;2023-04-01T07:01:14;25.73;;;3.47;;
49540;SDS011;35432;43.566;1.398;2023-04-01T07:06:47;27.88;;;2.70;;
49540;SDS011;35432;43.566;1.398;2023-04-01T07:09:22;22.40;;;2.60;;
49540;SDS011;35432;43.566;1.398;2023-04-01T07:11:51;25.50;;;2.83;;
49540;SDS011;35432;43.566;1.398;2023-04-01T07:22:39;27.25;;;2.25;;
49540;SDS011;35432;43.566;1.398;2023-04-01T07:25:12;26.10;;;2.23;;
49540;SDS011;35432;43.566;1.398;2023-04-01T07:27:43;26.23;;;2.60;;
49540;SDS011;35432;43.566;1.398;2023-04-01T07:30:20;32.88;;;3.33;;
49540;SDS011;35432;43.566;1.398;2023-04-01T07:32:56;28.77;;;3.88;;
49540;SDS011;35432;43.566;1.398;2023-04-01T07:35:54;30.50;;;3.15;;
49540;SDS011;35432;43.566;1.398;2023-04-01T07:41:28;18.40;;;2.25;;
49540;SDS011;35432;43.566;1.398;2023-04-01T07:47:10;24.35;;;2.22;;
49540;SDS011;35432;43.566;1.398;2023-04-01T07:55:21;22.67;;;2.50;;
49540;SDS011;35432;43.566;1.398;2023-04-01T08:01:08;20.75;;;2.88;;
49540;SDS011;35432;43.566;1.398;2023-04-01T08:03:51;28.88;;;2.75;;
49540;SDS011;35432;43.566;1.398;2023-04-01T08:06:32;31.47;;;3.53;;
49540;SDS011;35432;43.566;1.398;2023-04-01T08:12:12;37.08;;;3.72;;
49540;SDS011;35432;43.566;1.398;2023-04-01T08:15:07;28.85;;;3.45;;
49540;SDS011;35432;43.566;1.398;2023-04-01T08:17:57;20.65;;;2.13;;
49540;SDS011;35432;43.566;1.398;2023-04-01T08:23:14;29.50;;;3.15;;
49540;SDS011;35432;43.566;1.398;2023-04-01T08:28:30;22.95;;;2.28;;
49540;SDS011;35432;43.566;1.398;2023-04-01T08:31:03;23.02;;;2.70;;
49540;SDS011;35432;43.566;1.398;2023-04-01T08:33:34;22.27;;;2.60;;
49540;SDS011;35432;43.566;1.398;2023-04-01T08:36:17;27.27;;;3.05;;
49540;SDS011;35432;43.566;1.398;2023-04-01T08:55:37;21.52;;;2.67;;
49540;SDS011;35432;43.566;1.398;2023-04-01T08:58:20;16.70;;;1.75;;
49540;SDS011;35432;43.566;1.398;2023-04-01T09:00:53;20.57;;;2.47;;
49540;SDS011;35432;43.566;1.398;2023-04-01T09:06:50;14.10;;;1.70;;
49540;SDS011;35432;43.566;1.398;2023-04-01T09:09:22;12.00;;;1.70;;
49540;SDS011;35432;43.566;1.398;2023-04-01T09:26:17;10.88;;;1.33;;
49540;SDS011;35432;43.566;1.398;2023-04-01T09:29:22;12.40;;;1.30;;
49540;SDS011;35432;43.566;1.398;2023-04-01T09:42:44;13.83;;;1.37;;
49540;SDS011;35432;43.566;1.398;2023-04-01T09:51:17;17.58;;;2.08;;
49540;SDS011;35432;43.566;1.398;2023-04-01T09:54:25;12.00;;;1.50;;
49540;SDS011;35432;43.566;1.398;2023-04-01T10:11:07;15.47;;;2.00;;
49540;SDS011;35432;43.566;1.398;2023-04-01T10:13:47;15.10;;;2.28;;
49540;SDS011;35432;43.566;1.398;2023-04-01T11:00:47;13.25;;;2.25;;
49540;SDS011;35432;43.566;1.398;2023-04-01T11:26:05;10.60;;;1.70;;
49540;SDS011;35432;43.566;1.398;2023-04-01T11:32:38;10.77;;;1.08;;
49540;SDS011;35432;43.566;1.398;2023-04-01T11:43:31;6.80;;;0.90;;
49540;SDS011;35432;43.566;1.398;2023-04-01T11:46:25;7.90;;;1.45;;
49540;SDS011;35432;43.566;1.398;2023-04-01T11:51:59;7.18;;;0.73;;
49540;SDS011;35432;43.566;1.398;2023-04-01T12:02:58;5.70;;;0.80;;
49540;SDS011;35432;43.566;1.398;2023-04-01T12:37:47;8.25;;;0.90;;
49540;SDS011;35432;43.566;1.398;2023-04-01T12:46:40;8.40;;;0.93;;
49540;SDS011;35432;43.566;1.398;2023-04-01T13:02:40;6.15;;;0.70;;
49540;SDS011;35432;43.566;1.398;2023-04-01T13:07:59;8.85;;;0.90;;
49540;SDS011;35432;43.566;1.398;2023-04-01T13:19:36;8.25;;;0.95;;
49540;SDS011;35432;43.566;1.398;2023-04-01T13:24:51;5.17;;;0.70;;
49540;SDS011;35432;43.566;1.398;2023-04-01T13:32:44;7.18;;;0.60;;
49540;SDS011;35432;43.566;1.398;2023-04-01T13:40:51;7.88;;;0.77;;
49540;SDS011;35432;43.566;1.398;2023-04-01T13:43:41;7.75;;;1.30;;
49540;SDS011;35432;43.566;1.398;2023-04-01T13:46:22;5.50;;;0.80;;
49540;SDS011;35432;43.566;1.398;2023-04-01T13:57:33;9.75;;;1.67;;
49540;SDS011;35432;43.566;1.398;2023-04-01T14:16:55;10.23;;;1.23;;
49540;SDS011;35432;43.566;1.398;2023-04-01T14:29:57;8.70;;;0.95;;
49540;SDS011;35432;43.566;1.398;2023-04-01T14:49:21;11.30;;;1.50;;
49540;SDS011;35432;43.566;1.398;2023-04-01T14:51:55;10.85;;;1.33;;
49540;SDS011;35432;43.566;1.398;2023-04-01T14:54:32;7.38;;;1.13;;
49540;SDS011;35432;43.566;1.398;2023-04-01T14:59:46;7.60;;;0.93;;
49540;SDS011;35432;43.566;1.398;2023-04-01T15:07:49;10.75;;;0.90;;
49540;SDS011;35432;43.566;1.398;2023-04-01T15:27:45;6.80;;;0.70;;
49540;SDS011;35432;43.566;1.398;2023-04-01T15:38:52;12.30;;;2.60;;
49540;SDS011;35432;43.566;1.398;2023-04-01T15:49:52;10.98;;;1.48;;
49540;SDS011;35432;43.566;1.398;2023-04-01T16:06:43;10.07;;;1.20;;
49540;SDS011;35432;43.566;1.398;2023-04-01T16:23:37;12.73;;;2.10;;
49540;SDS011;35432;43.566;1.398;2023-04-01T16:26:18;6.68;;;1.10;;
49540;SDS011;35432;43.566;1.398;2023-04-01T16:28:57;11.82;;;2.05;;
49540;SDS011;35432;43.566;1.398;2023-04-01T16:31:37;6.78;;;0.88;;
49540;SDS011;35432;43.566;1.398;2023-04-01T16:34:30;6.93;;;0.80;;
49540;SDS011;35432;43.566;1.398;2023-04-01T16:37:09;7.50;;;0.97;;
49540;SDS011;35432;43.566;1.398;2023-04-01T16:39:47;6.70;;;0.98;;
49540;SDS011;35432;43.566;1.398;2023-04-01T16:42:22;8.27;;;1.52;;
49540;SDS011;35432;43.566;1.398;2023-04-01T16:47:38;8.27;;;1.52;;
49540;SDS011;35432;43.566;1.398;2023-04-01T16:50:20;8.50;;;2.00;;
49540;SDS011;35432;43.566;1.398;2023-04-01T16:55:25;6.20;;;1.00;;
49540;SDS011;35432;43.566;1.398;2023-04-01T16:58:00;6.35;;;0.75;;
49540;SDS011;35432;43.566;1.398;2023-04-01T17:03:27;9.70;;;1.03;;
49540;SDS011;35432;43.566;1.398;2023-04-01T17:06:11;8.00;;;1.10;;
49540;SDS011;35432;43.566;1.398;2023-04-01T17:11:54;7.72;;;1.85;;
49540;SDS011;35432;43.566;1.398;2023-04-01T17:14:31;9.77;;;1.08;;
49540;SDS011;35432;43.566;1.398;2023-04-01T17:19:37;9.68;;;1.77;;
49540;SDS011;35432;43.566;1.398;2023-04-01T17:22:42;9.68;;;1.25;;
49540;SDS011;35432;43.566;1.398;2023-04-01T17:36:50;6.80;;;0.90;;
49540;SDS011;35432;43.566;1.398;2023-04-01T17:46:19;4.30;;;0.50;;
49540;SDS011;35432;43.566;1.398;2023-04-01T17:53:46;5.85;;;0.95;;
49540;SDS011;35432;43.566;1.398;2023-04-01T17:56:31;7.53;;;0.80;;
49540;SDS011;35432;43.566;1.398;2023-04-01T18:07:25;8.73;;;1.13;;
49540;SDS011;35432;43.566;1.398;2023-04-01T18:20:54;8.90;;;1.40;;
49540;SDS011;35432;43.566;1.398;2023-04-01T18:26:05;8.67;;;1.73;;
49540;SDS011;35432;43.566;1.398;2023-04-01T18:28:38;9.60;;;1.30;;
49540;SDS011;35432;43.566;1.398;2023-04-01T18:31:11;10.57;;;1.30;;
49540;SDS011;35432;43.566;1.398;2023-04-01T18:39:02;6.93;;;1.20;;
49540;SDS011;35432;43.566;1.398;2023-04-01T18:44:30;28.10;;;7.90;;
49540;SDS011;35432;43.566;1.398;2023-04-01T18:50:01;5.97;;;0.80;;
49540;SDS011;35432;43.566;1.398;2023-04-01T18:52:36;8.97;;;1.27;;
49540;SDS011;35432;43.566;1.398;2023-04-01T18:57:49;11.10;;;2.80;;
49540;SDS011;35432;43.566;1.398;2023-04-01T19:03:10;7.22;;;0.98;;
49540;SDS011;35432;43.566;1.398;2023-04-01T19:05:54;10.23;;;1.30;;
49540;SDS011;35432;43.566;1.398;2023-04-01T19:18:48;9.33;;;1.90;;
49540;SDS011;35432;43.566;1.398;2023-04-01T19:21:39;6.25;;;1.40;;
49540;SDS011;35432;43.566;1.398;2023-04-01T19:26:40;6.13;;;0.73;;
49540;SDS011;35432;43.566;1.398;2023-04-01T19:37:05;6.40;;;0.83;;
49540;SDS011;35432;43.566;1.398;2023-04-01T19:45:47;10.18;;;2.17;;
49540;SDS011;35432;43.566;1.398;2023-04-01T19:48:09;8.32;;;2.20;;
49540;SDS011;35432;43.566;1.398;2023-04-01T19:50:53;18.40;;;4.77;;
49540;SDS011;35432;43.566;1.398;2023-04-01T19:56:17;9.75;;;2.40;;
49540;SDS011;35432;43.566;1.398;2023-04-01T19:59:03;14.25;;;2.60;;
49540;SDS011;35432;43.566;1.398;2023-04-01T20:04:50;7.23;;;1.80;;
49540;SDS011;35432;43.566;1.398;2023-04-01T20:10:20;10.90;;;2.00;;
49540;SDS011;35432;43.566;1.398;2023-04-01T20:18:05;11.63;;;1.57;;
49540;SDS011;35432;43.566;1.398;2023-04-01T20:20:39;16.70;;;3.97;;
49540;SDS011;35432;43.566;1.398;2023-04-01T20:23:29;11.97;;;1.90;;
49540;SDS011;35432;43.566;1.398;2023-04-01T20:26:21;9.30;;;1.52;;
49540;SDS011;35432;43.566;1.398;2023-04-01T20:37:57;8.10;;;1.10;;
49540;SDS011;35432;43.566;1.398;2023-04-01T20:40:32;11.73;;;1.40;;
49540;SDS011;35432;43.566;1.398;2023-04-01T20:48:46;12.00;;;1.88;;
49540;SDS011;35432;43.566;1.398;2023-04-01T20:51:26;11.33;;;1.43;;
49540;SDS011;35432;43.566;1.398;2023-04-01T20:54:05;11.63;;;1.30;;
49540;SDS011;35432;43.566;1.398;2023-04-01T20:57:00;14.55;;;1.25;;
49540;SDS011;35432;43.566;1.398;2023-04-01T21:02:27;9.80;;;1.15;;
49540;SDS011;35432;43.566;1.398;2023-04-01T21:10:40;10.53;;;1.37;;
49540;SDS011;35432;43.566;1.398;2023-04-01T21:16:01;10.25;;;1.27;;
49540;SDS011;35432;43.566;1.398;2023-04-01T21:18:46;11.35;;;1.42;;
49540;SDS011;35432;43.566;1.398;2023-04-01T21:29:14;12.90;;;1.33;;
49540;SDS011;35432;43.566;1.398;2023-04-01T21:48:48;16.58;;;1.95;;
49540;SDS011;35432;43.566;1.398;2023-04-01T21:54:35;16.15;;;1.40;;
49540;SDS011;35432;43.566;1.398;2023-04-01T22:00:00;11.02;;;1.27;;
49540;SDS011;35432;43.566;1.398;2023-04-01T22:05:27;14.23;;;1.50;;
49540;SDS011;35432;43.566;1.398;2023-04-01T22:08:02;11.00;;;1.15;;
49540;SDS011;35432;43.566;1.398;2023-04-01T22:10:51;11.80;;;1.27;;
49540;SDS011;35432;43.566;1.398;2023-04-01T22:13:31;9.00;;;1.13;;
49540;SDS011;35432;43.566;1.398;2023-04-01T22:21:33;10.63;;;1.52;;
49540;SDS011;35432;43.566;1.398;2023-04-01T22:24:30;13.45;;;1.30;;
49540;SDS011;35432;43.566;1.398;2023-04-01T22:29:43;7.18;;;0.80;;
49540;SDS011;35432;43.566;1.398;2023-04-01T22:32:25;12.40;;;1.00;;
49540;SDS011;35432;43.566;1.398;2023-04-01T22:35:09;13.25;;;1.75;;
49540;SDS011;35432;43.566;1.398;2023-04-01T22:37:56;7.45;;;0.90;;
49540;SDS011;35432;43.566;1.398;2023-04-01T22:40:48;11.18;;;1.33;;
49540;SDS011;35432;43.566;1.398;2023-04-01T22:54:34;12.40;;;1.40;;
49540;SDS011;35432;43.566;1.398;2023-04-01T22:57:08;13.07;;;1.45;;
49540;SDS011;35432;43.566;1.398;2023-04-01T22:59:48;8.67;;;0.93;;
49540;SDS011;35432;43.566;1.398;2023-04-01T23:04:56;10.02;;;1.05;;
49540;SDS011;35432;43.566;1.398;2023-04-01T23:12:58;11.90;;;1.20;;
49540;SDS011;35432;43.566;1.398;2023-04-01T23:15:26;11.77;;;1.20;;
49540;SDS011;35432;43.566;1.398;2023-04-01T23:18:02;10.02;;;1.05;;
49540;SDS011;35432;43.566;1.398;2023-04-01T23:23:30;12.30;;;1.00;;
49540;SDS011;35432;43.566;1.398;2023-04-01T23:28:47;13.30;;;1.20;;
49540;SDS011;35432;43.566;1.398;2023-04-01T23:31:44;10.93;;;0.90;;
49540;SDS011;35432;43.566;1.398;2023-04-01T23:36:40;11.35;;;1.10;;
49540;SDS011;35432;43.566;1.398;2023-04-01T23:39:17;10.30;;;1.00;;
49540;SDS011;35432;43.566;1.398;2023-04-01T23:41:48;8.68;;;1.00;;
49540;SDS011;35432;43.566;1.398;2023-04-01T23:44:17;10.15;;;0.95;;
49540;SDS011;35432;43.566;1.398;2023-04-01T23:46:44;11.20;;;0.90;;
49540;SDS011;35432;43.566;1.398;2023-04-01T23:49:13;11.68;;;1.10;;
49540;SDS011;35432;43.566;1.398;2023-04-01T23:51:48;8.67;;;1.13;;
49540;SDS011;35432;43.566;1.398;2023-04-01T23:54:23;11.15;;;0.93;;
49540;SDS011;35432;43.566;1.398;2023-04-01T23:56:54;8.55;;;0.65;;
49540;SDS011;35432;43.566;1.398;2023-04-01T23:59:30;11.15;;;0.90;;
